createdAt,value
2023-03-11T00:00:36.724Z,76.64
2023-03-11T00:03:06.889Z,76.96
2023-03-11T00:05:38.588Z,76.64
2023-03-11T00:08:08.231Z,77.26
2023-03-11T00:10:39.302Z,77.25
2023-03-11T00:13:10.164Z,77.14
2023-03-11T00:15:40.606Z,76.88
2023-03-11T00:18:08.334Z,76.99
2023-03-11T00:20:38.390Z,77.63
2023-03-11T00:23:08.458Z,77.66
2023-03-11T00:25:38.453Z,77.61
2023-03-11T00:28:11.237Z,77.46
2023-03-11T00:30:40.845Z,77.60
2023-03-11T00:33:10.799Z,77.41
2023-03-11T00:35:41.226Z,78.25
2023-03-11T00:38:13.058Z,77.64
2023-03-11T00:40:41.431Z,77.98
2023-03-11T00:43:09.105Z,78.01
2023-03-11T00:45:37.395Z,77.77
2023-03-11T00:48:05.937Z,78.05
2023-03-11T00:50:36.245Z,78.28
2023-03-11T00:53:05.011Z,78.07
2023-03-11T00:55:34.704Z,77.84
2023-03-11T00:58:06.588Z,77.73
2023-03-11T01:00:41.734Z,78.42
2023-03-11T01:03:09.333Z,78.32
2023-03-11T01:05:37.010Z,78.40
2023-03-11T01:08:05.072Z,78.34
2023-03-11T01:10:34.833Z,78.74
2023-03-11T01:13:03.504Z,78.64
2023-03-11T01:15:36.843Z,78.33
2023-03-11T01:18:05.659Z,78.58
2023-03-11T01:20:35.337Z,78.33
2023-03-11T01:23:03.161Z,77.93
2023-03-11T01:25:30.826Z,78.34
2023-03-11T01:27:59.523Z,78.50
2023-03-11T01:30:28.642Z,78.35
2023-03-11T01:32:58.233Z,78.81
2023-03-11T01:35:28.068Z,78.32
2023-03-11T01:37:56.462Z,78.30
2023-03-11T01:40:29.363Z,78.60
2023-03-11T01:42:59.979Z,78.89
2023-03-11T01:46:03.156Z,78.89
2023-03-11T01:48:32.124Z,79.16
2023-03-11T01:50:59.955Z,79.21
2023-03-11T01:53:27.665Z,79.03
2023-03-11T01:55:55.799Z,78.50
2023-03-11T01:58:30.992Z,79.24
2023-03-11T02:01:00.451Z,78.99
2023-03-11T02:03:31.730Z,78.61
2023-03-11T02:06:02.801Z,79.43
2023-03-11T02:08:34.226Z,78.98
2023-03-11T02:11:06.265Z,79.33
2023-03-11T02:13:35.432Z,78.96
2023-03-11T02:16:04.723Z,79.47
2023-03-11T02:18:33.008Z,79.25
2023-03-11T02:21:19.277Z,79.48
2023-03-11T02:23:52.299Z,79.12
2023-03-11T02:26:31.086Z,79.41
2023-03-11T02:29:00.699Z,79.13
2023-03-11T02:31:29.757Z,79.14
2023-03-11T02:34:01.811Z,79.34
2023-03-11T02:36:41.771Z,79.08
2023-03-11T02:39:12.754Z,79.46
2023-03-11T02:41:45.800Z,79.40
2023-03-11T02:44:16.464Z,79.79
2023-03-11T02:46:45.451Z,79.42
2023-03-11T02:49:15.027Z,79.65
2023-03-11T02:51:42.596Z,79.84
2023-03-11T02:54:10.223Z,79.88
2023-03-11T02:56:38.408Z,79.99
2023-03-11T02:59:06.141Z,79.99
2023-03-11T03:01:33.787Z,79.87
2023-03-11T03:04:01.710Z,79.54
2023-03-11T03:06:32.845Z,79.71
2023-03-11T03:09:00.422Z,79.94
2023-03-11T03:11:28.266Z,79.75
2023-03-11T03:13:56.103Z,79.92
2023-03-11T03:16:24.411Z,80.12
2023-03-11T03:18:52.721Z,79.91
2023-03-11T03:21:20.633Z,80.07
2023-03-11T03:23:48.233Z,80.56
2023-03-11T03:26:16.761Z,80.39
2023-03-11T03:28:47.844Z,80.54
2023-03-11T03:31:15.646Z,80.53
2023-03-11T03:33:44.294Z,80.37
2023-03-11T03:36:14.176Z,80.59
2023-03-11T03:38:58.059Z,80.58
2023-03-11T03:41:30.033Z,80.22
2023-03-11T03:43:59.112Z,79.90
2023-03-11T03:46:27.004Z,80.67
2023-03-11T03:48:58.850Z,80.75
2023-03-11T03:51:27.444Z,80.65
2023-03-11T03:54:02.325Z,80.41
2023-03-11T03:56:30.985Z,80.62
2023-03-11T03:58:58.724Z,80.81
2023-03-11T04:01:31.186Z,80.54
2023-03-11T04:03:59.361Z,80.47
2023-03-11T04:06:28.212Z,80.96
2023-03-11T04:09:03.160Z,80.88
2023-03-11T04:11:33.797Z,80.96
2023-03-11T04:14:03.288Z,80.58
2023-03-11T04:16:33.188Z,80.39
2023-03-11T04:19:05.935Z,80.87
2023-03-11T04:21:34.608Z,80.92
2023-03-11T04:24:03.967Z,80.75
2023-03-11T04:26:36.096Z,80.97
2023-03-11T04:29:05.578Z,80.70
2023-03-11T04:31:39.014Z,80.79
2023-03-11T04:34:08.043Z,80.71
2023-03-11T04:36:37.325Z,80.88
2023-03-11T04:39:05.931Z,80.79
2023-03-11T04:41:40.017Z,80.90
2023-03-11T04:44:09.262Z,80.99
2023-03-11T04:46:36.885Z,80.76
2023-03-11T04:49:07.282Z,80.78
2023-03-11T04:51:34.947Z,80.59
2023-03-11T04:54:02.545Z,80.92
2023-03-11T04:56:31.336Z,80.60
2023-03-11T04:58:59.183Z,80.89
2023-03-11T05:01:27.745Z,80.46
2023-03-11T05:03:56.720Z,80.74
2023-03-11T05:06:24.447Z,80.88
2023-03-11T05:08:52.292Z,80.92
2023-03-11T05:11:20.011Z,80.86
2023-03-11T05:13:48.742Z,80.90
2023-03-11T05:16:17.159Z,81.13
2023-03-11T05:18:44.756Z,80.73
2023-03-11T05:21:15.208Z,80.92
2023-03-11T05:23:42.945Z,80.89
2023-03-11T05:26:10.819Z,80.89
2023-03-11T05:28:40.561Z,80.61
2023-03-11T05:31:10.183Z,80.43
2023-03-11T05:33:39.135Z,80.92
2023-03-11T05:36:10.321Z,80.83
2023-03-11T05:38:41.431Z,80.93
2023-03-11T05:41:09.569Z,80.34
2023-03-11T05:43:37.653Z,80.56
2023-03-11T05:46:05.443Z,80.86
2023-03-11T05:48:33.133Z,81.14
2023-03-11T05:51:01.170Z,81.48
2023-03-11T05:53:28.905Z,81.24
2023-03-11T05:55:57.999Z,81.27
2023-03-11T05:58:31.019Z,81.25
2023-03-11T06:01:01.899Z,81.46
2023-03-11T06:03:29.704Z,81.01
2023-03-11T06:05:57.247Z,81.38
2023-03-11T06:08:24.894Z,81.01
2023-03-11T06:10:52.451Z,81.39
2023-03-11T06:13:21.388Z,81.17
2023-03-11T06:15:52.134Z,81.32
2023-03-11T06:18:21.657Z,81.18
2023-03-11T06:20:49.556Z,81.30
2023-03-11T06:23:24.605Z,81.68
2023-03-11T06:26:01.289Z,81.50
2023-03-11T06:28:32.088Z,81.51
2023-03-11T06:31:16.573Z,81.19
2023-03-11T06:33:44.765Z,81.35
2023-03-11T06:36:15.364Z,81.89
2023-03-11T06:38:43.394Z,81.62
2023-03-11T06:41:11.149Z,81.93
2023-03-11T06:43:39.507Z,81.95
2023-03-11T06:46:17.154Z,82.29
2023-03-11T06:48:46.431Z,81.64
2023-03-11T06:51:16.579Z,81.74
2023-03-11T06:53:44.786Z,82.11
2023-03-11T06:56:13.889Z,82.04
2023-03-11T06:58:49.410Z,81.72
2023-03-11T07:01:23.402Z,82.11
2023-03-11T07:03:52.147Z,81.98
2023-03-11T07:06:26.310Z,82.12
2023-03-11T07:08:59.899Z,81.99
2023-03-11T07:11:28.889Z,82.30
2023-03-11T07:14:06.810Z,81.82
2023-03-11T07:16:39.457Z,82.02
2023-03-11T07:19:12.843Z,81.68
2023-03-11T07:21:41.088Z,81.92
2023-03-11T07:24:11.651Z,81.93
2023-03-11T07:26:39.455Z,81.62
2023-03-11T07:29:07.167Z,81.67
2023-03-11T07:31:35.306Z,81.74
2023-03-11T07:34:06.118Z,81.54
2023-03-11T07:36:33.753Z,81.35
2023-03-11T07:39:04.758Z,81.51
2023-03-11T07:41:34.633Z,82.07
2023-03-11T07:44:03.743Z,81.50
2023-03-11T07:46:32.171Z,81.83
2023-03-11T07:49:02.270Z,81.80
2023-03-11T07:51:32.500Z,81.54
2023-03-11T07:54:01.133Z,81.22
2023-03-11T07:56:31.153Z,81.95
2023-03-11T07:59:00.650Z,81.83
2023-03-11T08:01:36.131Z,81.33
2023-03-11T08:04:05.841Z,81.19
2023-03-11T08:06:35.366Z,81.20
2023-03-11T08:09:06.412Z,80.99
2023-03-11T08:11:35.095Z,81.01
2023-03-11T08:14:03.342Z,80.50
2023-03-11T08:16:31.913Z,80.19
2023-03-11T08:18:59.694Z,80.19
2023-03-11T08:21:31.984Z,80.20
2023-03-11T08:24:01.994Z,79.88
2023-03-11T08:26:31.175Z,79.83
2023-03-11T08:28:59.749Z,79.66
2023-03-11T08:31:30.281Z,80.16
2023-03-11T08:34:01.526Z,81.26
2023-03-11T08:36:30.035Z,81.53
2023-03-11T08:38:57.993Z,80.76
2023-03-11T08:41:26.686Z,79.15
2023-03-11T08:43:54.758Z,78.61
2023-03-11T08:46:37.499Z,76.02
2023-03-11T08:49:06.253Z,75.04
2023-03-11T08:51:35.290Z,73.74
2023-03-11T08:54:04.111Z,72.51
2023-03-11T08:56:31.872Z,71.27
2023-03-11T08:58:59.698Z,69.72
2023-03-11T09:01:28.869Z,67.14
2023-03-11T09:03:56.586Z,65.65
2023-03-11T09:06:24.627Z,63.48
2023-03-11T09:08:52.427Z,61.59
2023-03-11T09:11:22.124Z,60.49
2023-03-11T09:13:50.153Z,59.54
2023-03-11T09:16:23.326Z,58.78
2023-03-11T09:18:51.123Z,58.57
2023-03-11T09:21:19.178Z,58.30
2023-03-11T09:23:47.285Z,58.04
2023-03-11T09:26:15.801Z,57.71
2023-03-11T09:28:43.554Z,57.47
2023-03-11T09:31:11.274Z,57.58
2023-03-11T09:33:40.426Z,57.24
2023-03-11T09:36:12.354Z,57.35
2023-03-11T09:38:39.903Z,57.01
2023-03-11T09:41:27.936Z,56.52
2023-03-11T09:44:03.235Z,56.55
2023-03-11T09:46:49.667Z,56.36
2023-03-11T09:50:04.909Z,56.60
2023-03-11T09:52:51.695Z,57.49
2023-03-11T09:55:39.721Z,57.82
2023-03-11T09:58:42.025Z,57.57
2023-03-11T10:01:16.294Z,57.86
2023-03-11T10:03:44.736Z,58.77
2023-03-11T10:06:16.828Z,58.14
2023-03-11T10:08:52.491Z,58.16
2023-03-11T10:11:48.767Z,57.54
2023-03-11T10:14:35.461Z,56.79
2023-03-11T10:17:36.853Z,55.92
2023-03-11T10:20:10.590Z,55.61
2023-03-11T10:22:50.595Z,54.94
2023-03-11T10:25:21.196Z,55.14
2023-03-11T10:28:05.694Z,53.19
2023-03-11T10:31:06.146Z,53.21
2023-03-11T10:33:53.104Z,53.24
2023-03-11T10:36:24.452Z,52.66
2023-03-11T10:38:54.085Z,51.58
2023-03-11T10:41:37.215Z,50.68
2023-03-11T10:44:07.368Z,50.79
2023-03-11T10:46:34.878Z,49.80
2023-03-11T10:49:02.476Z,49.06
2023-03-11T10:51:35.736Z,48.45
2023-03-11T10:54:03.983Z,48.61
2023-03-11T10:56:35.078Z,48.18
2023-03-11T10:59:05.317Z,48.59
2023-03-11T11:01:33.027Z,49.09
2023-03-11T11:04:01.829Z,49.43
2023-03-11T11:06:35.114Z,50.00
2023-03-11T11:09:14.506Z,51.14
2023-03-11T11:11:43.382Z,51.86
2023-03-11T11:14:10.928Z,52.22
2023-03-11T11:16:39.090Z,52.85
2023-03-11T11:19:12.294Z,53.25
2023-03-11T11:21:48.822Z,53.18
2023-03-11T11:24:28.465Z,53.60
2023-03-11T11:27:22.739Z,54.81
2023-03-11T11:30:23.413Z,54.26
2023-03-11T11:32:53.864Z,55.22
2023-03-11T11:35:24.753Z,55.74
2023-03-11T11:37:55.788Z,56.15
2023-03-11T11:40:33.358Z,56.03
2023-03-11T11:43:44.363Z,56.01
2023-03-11T11:46:20.432Z,56.62
2023-03-11T11:49:09.124Z,56.33
2023-03-11T11:52:00.990Z,56.13
2023-03-11T11:54:44.051Z,55.29
2023-03-11T11:57:16.990Z,56.64
2023-03-11T11:59:45.288Z,55.70
2023-03-11T12:02:52.750Z,55.52
2023-03-11T12:05:30.970Z,55.18
2023-03-11T12:08:10.455Z,54.70
2023-03-11T12:10:50.172Z,55.24
2023-03-11T12:13:20.660Z,55.31
2023-03-11T12:15:56.632Z,55.02
2023-03-11T12:18:38.662Z,53.99
2023-03-11T12:21:47.692Z,53.41
2023-03-11T12:24:24.266Z,52.98
2023-03-11T12:26:54.730Z,52.24
2023-03-11T12:29:39.938Z,51.27
2023-03-11T12:32:07.900Z,51.11
2023-03-11T12:34:36.138Z,49.86
2023-03-11T12:37:14.784Z,49.16
2023-03-11T12:39:42.445Z,48.48
2023-03-11T12:42:27.107Z,47.54
2023-03-11T12:44:54.759Z,46.92
2023-03-11T12:47:29.263Z,46.82
2023-03-11T12:50:35.539Z,46.24
2023-03-11T12:53:03.996Z,46.21
2023-03-11T12:55:34.610Z,45.29
2023-03-11T12:58:33.625Z,45.75
2023-03-11T13:01:13.769Z,46.52
2023-03-11T13:03:51.461Z,46.71
2023-03-11T13:06:31.901Z,47.42
2023-03-11T13:09:00.805Z,47.96
2023-03-11T13:11:34.149Z,47.98
2023-03-11T13:14:30.976Z,47.80
2023-03-11T13:17:32.495Z,48.30
2023-03-11T13:20:00.154Z,48.83
2023-03-11T13:23:04.401Z,48.47
2023-03-11T13:25:38.496Z,48.73
2023-03-11T13:28:33.696Z,48.49
2023-03-11T13:31:38.898Z,48.30
2023-03-11T13:34:17.372Z,49.26
2023-03-11T13:36:47.903Z,49.07
2023-03-11T13:39:44.592Z,49.34
2023-03-11T13:42:24.248Z,49.61
2023-03-11T13:44:52.140Z,49.59
2023-03-11T13:47:21.258Z,48.93
2023-03-11T13:50:23.879Z,47.71
2023-03-11T13:52:54.199Z,48.42
2023-03-11T13:55:26.990Z,48.19
2023-03-11T13:57:58.028Z,48.11
2023-03-11T14:00:30.938Z,47.89
2023-03-11T14:03:02.709Z,48.12
2023-03-11T14:05:33.450Z,48.10
2023-03-11T14:08:24.380Z,47.32
2023-03-11T14:11:03.398Z,47.67
2023-03-11T14:13:38.763Z,48.75
2023-03-11T14:16:10.884Z,49.18
2023-03-11T14:19:03.475Z,48.78
2023-03-11T14:21:31.995Z,49.04
2023-03-11T14:24:00.394Z,49.18
2023-03-11T14:26:35.046Z,48.97
2023-03-11T14:29:09.026Z,49.29
2023-03-11T14:31:39.336Z,49.78
2023-03-11T14:34:25.473Z,48.62
2023-03-11T14:36:58.984Z,48.24
2023-03-11T14:39:29.737Z,48.31
2023-03-11T14:42:21.979Z,48.17
2023-03-11T14:45:01.902Z,48.70
2023-03-11T14:47:38.302Z,49.46
2023-03-11T14:50:10.350Z,50.07
2023-03-11T14:52:49.884Z,50.28
2023-03-11T14:55:29.439Z,50.63
2023-03-11T14:58:12.370Z,50.09
2023-03-11T15:00:56.313Z,50.29
2023-03-11T15:03:29.095Z,50.64
2023-03-11T15:06:00.451Z,51.46
2023-03-11T15:08:32.144Z,51.24
2023-03-11T15:11:10.736Z,49.82
2023-03-11T15:13:40.564Z,49.80
2023-03-11T15:16:21.590Z,49.80
2023-03-11T15:18:49.348Z,50.78
2023-03-11T15:21:20.065Z,50.22
2023-03-11T15:23:50.495Z,51.06
2023-03-11T15:26:30.066Z,50.26
2023-03-11T15:29:14.002Z,50.21
2023-03-11T15:31:44.943Z,50.95
2023-03-11T15:34:25.530Z,52.02
2023-03-11T15:37:01.628Z,52.52
2023-03-11T15:39:32.097Z,53.08
2023-03-11T15:42:03.835Z,52.75
2023-03-11T15:44:33.419Z,53.38
2023-03-11T15:47:01.002Z,53.45
2023-03-11T15:49:29.812Z,53.67
2023-03-11T15:52:02.249Z,53.33
2023-03-11T15:54:30.252Z,53.14
2023-03-11T15:57:01.198Z,53.69
2023-03-11T15:59:30.598Z,53.18
2023-03-11T16:01:59.582Z,53.10
2023-03-11T16:04:27.502Z,53.38
2023-03-11T16:07:08.630Z,53.44
2023-03-11T16:09:36.355Z,53.26
2023-03-11T16:12:17.162Z,53.34
2023-03-11T16:14:45.358Z,53.50
2023-03-11T16:17:15.187Z,53.56
2023-03-11T16:19:43.384Z,53.08
2023-03-11T16:22:17.759Z,53.14
2023-03-11T16:24:51.798Z,53.25
2023-03-11T16:27:19.761Z,52.74
2023-03-11T16:29:47.576Z,53.05
2023-03-11T16:32:15.359Z,53.02
2023-03-11T16:34:43.646Z,53.06
2023-03-11T16:37:15.355Z,52.43
2023-03-11T16:39:43.069Z,52.80
2023-03-11T16:42:10.907Z,52.19
2023-03-11T16:44:38.589Z,52.37
2023-03-11T16:47:06.352Z,51.71
2023-03-11T16:49:33.913Z,51.60
2023-03-11T16:52:01.614Z,51.40
2023-03-11T16:54:29.203Z,51.70
2023-03-11T16:56:56.999Z,51.76
2023-03-11T16:59:24.637Z,51.64
2023-03-11T17:01:52.507Z,51.25
2023-03-11T17:04:20.142Z,51.76
2023-03-11T17:06:48.029Z,51.71
2023-03-11T17:09:15.629Z,51.70
2023-03-11T17:11:43.197Z,51.47
2023-03-11T17:14:16.579Z,51.68
2023-03-11T17:16:45.256Z,51.51
2023-03-11T17:19:13.525Z,51.98
2023-03-11T17:21:41.236Z,51.63
2023-03-11T17:24:10.347Z,52.14
2023-03-11T17:26:38.653Z,52.21
2023-03-11T17:29:06.317Z,51.03
2023-03-11T17:31:34.027Z,51.54
2023-03-11T17:34:01.900Z,52.06
2023-03-11T17:36:29.603Z,51.05
2023-03-11T17:38:57.105Z,50.71
2023-03-11T17:41:24.971Z,49.72
2023-03-11T17:43:52.579Z,49.79
2023-03-11T17:46:20.770Z,49.63
2023-03-11T17:48:50.019Z,49.91
2023-03-11T17:51:23.515Z,48.92
2023-03-11T17:53:52.831Z,48.71
2023-03-11T17:56:21.990Z,48.81
2023-03-11T17:58:50.710Z,48.75
2023-03-11T18:01:21.817Z,48.02
2023-03-11T18:03:50.571Z,48.57
2023-03-11T18:06:19.721Z,47.82
2023-03-11T18:08:50.006Z,47.90
2023-03-11T18:11:21.285Z,48.08
2023-03-11T18:13:49.703Z,48.57
2023-03-11T18:16:26.469Z,49.36
2023-03-11T18:18:56.455Z,49.27
2023-03-11T18:21:27.144Z,49.53
2023-03-11T18:23:56.947Z,49.77
2023-03-11T18:26:26.672Z,50.75
2023-03-11T18:28:59.599Z,51.33
2023-03-11T18:31:28.428Z,51.10
2023-03-11T18:34:13.390Z,51.07
2023-03-11T18:36:42.186Z,51.73
2023-03-11T18:39:12.729Z,51.76
2023-03-11T18:41:41.175Z,51.60
2023-03-11T18:44:08.872Z,51.49
2023-03-11T18:46:36.678Z,51.46
2023-03-11T18:49:07.008Z,51.69
2023-03-11T18:51:34.803Z,51.97
2023-03-11T18:54:03.103Z,52.23
2023-03-11T18:56:33.781Z,51.79
2023-03-11T18:59:01.581Z,52.78
2023-03-11T19:01:29.550Z,52.66
2023-03-11T19:03:59.516Z,53.36
2023-03-11T19:06:29.073Z,53.12
2023-03-11T19:08:58.009Z,54.09
2023-03-11T19:11:26.438Z,53.58
2023-03-11T19:13:54.205Z,53.97
2023-03-11T19:16:24.707Z,54.23
2023-03-11T19:18:53.915Z,55.04
2023-03-11T19:21:22.595Z,55.01
2023-03-11T19:23:52.827Z,56.01
2023-03-11T19:26:25.740Z,55.64
2023-03-11T19:28:58.510Z,55.93
2023-03-11T19:31:26.106Z,55.79
2023-03-11T19:33:53.726Z,55.76
2023-03-11T19:36:21.366Z,56.59
2023-03-11T19:38:49.113Z,55.99
2023-03-11T19:41:19.425Z,56.49
2023-03-11T19:43:47.947Z,56.45
2023-03-11T19:46:21.032Z,56.09
2023-03-11T19:48:48.773Z,56.44
2023-03-11T19:51:17.435Z,55.98
2023-03-11T19:53:46.076Z,57.03
2023-03-11T19:56:13.833Z,56.96
2023-03-11T19:58:42.937Z,56.78
2023-03-11T20:01:18.453Z,56.69
2023-03-11T20:03:46.758Z,56.41
2023-03-11T20:06:16.647Z,56.76
2023-03-11T20:08:44.629Z,56.68
2023-03-11T20:11:12.600Z,56.49
2023-03-11T20:13:43.834Z,56.40
2023-03-11T20:16:17.278Z,56.25
2023-03-11T20:18:50.363Z,55.77
2023-03-11T20:21:18.866Z,56.27
2023-03-11T20:23:46.562Z,56.69
2023-03-11T20:26:16.395Z,57.49
2023-03-11T20:28:44.376Z,56.86
2023-03-11T20:31:23.169Z,57.33
2023-03-11T20:33:52.101Z,57.90
2023-03-11T20:36:22.762Z,58.64
2023-03-11T20:38:52.449Z,59.80
2023-03-11T20:41:20.640Z,60.15
2023-03-11T20:43:48.259Z,61.02
2023-03-11T20:46:15.945Z,62.18
2023-03-11T20:48:43.700Z,62.30
2023-03-11T20:51:19.628Z,62.84
2023-03-11T20:53:48.114Z,63.03
2023-03-11T20:56:18.870Z,63.53
2023-03-11T20:58:48.858Z,64.20
2023-03-11T21:01:24.375Z,64.52
2023-03-11T21:03:57.921Z,65.52
2023-03-11T21:06:31.428Z,65.98
2023-03-11T21:09:01.326Z,66.43
2023-03-11T21:11:29.205Z,66.93
2023-03-11T21:13:56.964Z,68.14
2023-03-11T21:16:24.705Z,69.21
2023-03-11T21:18:53.049Z,70.20
2023-03-11T21:21:21.136Z,71.05
2023-03-11T21:23:49.451Z,71.26
2023-03-11T21:26:17.937Z,72.19
2023-03-11T21:28:47.135Z,72.23
2023-03-11T21:31:20.575Z,72.76
2023-03-11T21:33:49.298Z,73.32
2023-03-11T21:36:17.779Z,74.00
2023-03-11T21:38:47.257Z,74.29
2023-03-11T21:41:18.565Z,74.00
2023-03-11T21:43:46.813Z,74.33
2023-03-11T21:46:17.385Z,74.84
2023-03-11T21:48:45.813Z,74.97
2023-03-11T21:51:14.449Z,75.68
2023-03-11T21:53:42.300Z,75.90
2023-03-11T21:56:10.331Z,76.03
2023-03-11T21:58:38.087Z,76.55
2023-03-11T22:01:07.147Z,76.51
2023-03-11T22:03:36.407Z,76.75
2023-03-11T22:06:07.339Z,76.81
2023-03-11T22:08:35.967Z,77.08
2023-03-11T22:11:07.883Z,77.17
2023-03-11T22:13:35.903Z,77.42
2023-03-11T22:16:06.297Z,77.34
2023-03-11T22:18:34.107Z,77.68
2023-03-11T22:21:02.013Z,77.29
2023-03-11T22:23:29.704Z,77.75
2023-03-11T22:25:57.660Z,78.01
2023-03-11T22:28:25.550Z,77.96
2023-03-11T22:30:53.397Z,78.11
2023-03-11T22:33:21.073Z,78.31
2023-03-11T22:35:56.544Z,78.70
2023-03-11T22:38:24.299Z,78.70
2023-03-11T22:40:52.194Z,79.22
2023-03-11T22:43:19.980Z,79.37
2023-03-11T22:45:47.909Z,79.84
2023-03-11T22:48:15.667Z,80.50
2023-03-11T22:50:47.414Z,80.56
2023-03-11T22:53:15.714Z,81.03
2023-03-11T22:55:44.584Z,80.98
2023-03-11T22:58:12.742Z,81.37
2023-03-11T23:00:40.468Z,81.68
2023-03-11T23:03:08.178Z,81.96
2023-03-11T23:05:41.924Z,82.38
2023-03-11T23:08:12.101Z,82.53
2023-03-11T23:10:45.095Z,82.40
2023-03-11T23:13:13.277Z,82.92
2023-03-11T23:15:42.766Z,82.95
2023-03-11T23:18:11.217Z,83.14
2023-03-11T23:20:40.660Z,83.33
2023-03-11T23:23:09.506Z,83.55
2023-03-11T23:25:38.116Z,83.85
2023-03-11T23:28:06.347Z,84.08
2023-03-11T23:30:34.027Z,84.26
2023-03-11T23:33:03.131Z,84.27
2023-03-11T23:35:31.547Z,84.35
2023-03-11T23:37:59.780Z,84.58
2023-03-11T23:40:27.467Z,84.99
2023-03-11T23:42:55.262Z,84.96
2023-03-11T23:45:22.998Z,85.19
2023-03-11T23:47:50.904Z,85.04
2023-03-11T23:50:19.039Z,85.35
2023-03-11T23:52:46.994Z,85.32
2023-03-11T23:55:14.702Z,85.49
2023-03-11T23:57:42.206Z,85.67
